Time;durP1;ratioP1;P1;durP2;ratioP2;P2;SDS_P1;SDS_P2;PMS_P1;PMS_P2;Temp;Humidity;BMP_temperature;BMP_pressure;BME280_temperature;BME280_humidity;BME280_pressure;Samples;Min_cycle;Max_cycle;Signal;HPM_P1;HPM_P2
2023/02/19 00:18:00;;;;;;;;;;;;;;;9.30;85.04;100441.94;1088458;54;20953;-84
2023/02/19 00:19:25;;;;;;;;;;;;;;;9.26;84.79;100444.97;1088519;54;19927;-83
2023/02/19 00:20:29;;;;;;;;;;;;;;;9.29;84.52;100444.69;1088903;46;19985;-85
2023/02/19 00:21:39;;;;;;;;;;;;;;;9.27;84.85;100446.63;1089819;46;19927;-82
2023/02/19 00:30:56;;;;;;;;;;;;;;;9.33;83.47;100438.16;1088147;54;19933;-82
2023/02/19 00:32:00;;;;;;;;;;;;;;;9.34;83.24;100442.53;1088724;54;19942;-85
2023/02/19 00:33:02;;;;;;;;;;;;;;;9.37;83.14;100444.91;1088783;54;19931;-83
2023/02/19 00:34:06;;;;;;;;;;;;;;;9.46;82.97;100436.13;1093454;46;19927;-83
2023/02/19 00:35:08;;;;;;;;;;;;;;;9.50;82.92;100434.06;1092560;46;19942;-84
2023/02/19 00:36:15;;;;;;;;;;;;;;;9.42;82.06;100434.72;1099894;39;20539;-85
2023/02/19 00:37:26;;;;;;;;;;;;;;;9.39;82.43;100421.63;1088813;54;19949;-83
2023/02/19 00:38:30;;;;;;;;;;;;;;;9.40;81.98;100419.81;1088818;54;19930;-83
2023/02/19 00:39:33;;;;;;;;;;;;;;;9.37;82.08;100426.22;1088746;54;19943;-85
2023/02/19 00:40:38;;;;;;;;;;;;;;;9.41;82.05;100411.66;1088810;54;19927;-84
2023/02/19 00:41:42;;;;;;;;;;;;;;;9.38;82.49;100417.25;1088831;54;19965;-83
2023/02/19 00:42:45;;;;;;;;;;;;;;;9.36;82.88;100425.41;1088805;54;19927;-82
2023/02/19 00:43:50;;;;;;;;;;;;;;;9.35;83.55;100422.88;1088780;54;19934;-83
2023/02/19 00:44:57;;;;;;;;;;;;;;;9.35;83.48;100422.88;1088763;54;19933;-83
2023/02/19 00:46:00;;;;;;;;;;;;;;;9.42;83.06;100416.03;1088751;54;19934;-84
2023/02/19 00:47:17;;;;;;;;;;;;;;;9.35;83.59;100413.03;1088785;54;19978;-82
2023/02/19 00:48:18;;;;;;;;;;;;;;;9.32;83.23;100415.09;1088885;54;19934;-84
2023/02/19 00:49:32;;;;;;;;;;;;;;;9.35;83.30;100407.69;1088860;54;19934;-83
2023/02/19 00:50:33;;;;;;;;;;;;;;;9.28;83.36;100411.00;1088793;54;19927;-85
2023/02/19 00:51:39;;;;;;;;;;;;;;;9.24;83.21;100414.91;1092060;39;20678;-83
2023/02/19 00:52:40;;;;;;;;;;;;;;;9.23;83.47;100398.03;1090167;46;19935;-83
2023/02/19 00:53:45;;;;;;;;;;;;;;;9.21;83.59;100411.50;1088798;54;20701;-82
2023/02/19 00:54:47;;;;;;;;;;;;;;;9.23;83.46;100403.38;1088859;54;19966;-84
2023/02/19 00:55:50;;;;;;;;;;;;;;;9.22;82.72;100409.66;1088778;54;20554;-83
2023/02/19 00:56:52;;;;;;;;;;;;;;;9.23;82.79;100400.69;1088818;54;19943;-84
2023/02/19 00:58:06;;;;;;;;;;;;;;;9.27;83.19;100386.16;1088797;54;19938;-85
2023/02/19 00:59:07;;;;;;;;;;;;;;;9.28;83.71;100369.16;1088724;54;19949;-83
2023/02/19 01:00:17;;;;;;;;;;;;;;;9.32;83.67;100359.09;1088748;54;19988;-83
2023/02/19 01:01:21;;;;;;;;;;;;;;;9.33;83.58;100371.44;1094086;46;19962;-84
2023/02/19 01:02:26;;;;;;;;;;;;;;;9.28;83.94;100381.63;1088807;54;19927;-83
2023/02/19 01:03:27;;;;;;;;;;;;;;;9.35;83.63;100390.84;1088811;54;19942;-84
2023/02/19 01:04:42;;;;;;;;;;;;;;;9.28;84.16;100387.84;1088747;54;19937;-83
2023/02/19 01:05:43;;;;;;;;;;;;;;;9.33;84.19;100398.13;1088688;54;19942;-85
2023/02/19 01:06:57;;;;;;;;;;;;;;;9.33;84.20;100398.13;1088766;54;19943;-83
2023/02/19 01:07:58;;;;;;;;;;;;;;;9.26;84.13;100400.47;1088819;54;19923;-83
2023/02/19 01:09:02;;;;;;;;;;;;;;;9.26;84.24;100396.94;1088708;54;20720;-83
2023/02/19 01:10:07;;;;;;;;;;;;;;;9.30;84.49;100395.72;1088808;54;19966;-85
2023/02/19 01:11:11;;;;;;;;;;;;;;;9.28;84.21;100402.97;1088870;54;19934;-83
2023/02/19 01:12:12;;;;;;;;;;;;;;;9.27;84.27;100401.28;1088783;54;19943;-83
2023/02/19 01:13:16;;;;;;;;;;;;;;;9.32;84.56;100404.44;1088802;54;20613;-84
2023/02/19 01:14:18;;;;;;;;;;;;;;;9.39;84.14;100410.94;1088786;54;20706;-83
2023/02/19 01:15:25;;;;;;;;;;;;;;;9.41;84.20;100403.66;1088832;54;19945;-82
2023/02/19 01:16:29;;;;;;;;;;;;;;;9.32;83.81;100391.09;1088849;54;19935;-85
2023/02/19 01:17:42;;;;;;;;;;;;;;;9.34;83.91;100403.31;1088759;54;19954;-85
2023/02/19 01:18:44;;;;;;;;;;;;;;;9.37;83.97;100399.56;1088691;54;19967;-82
2023/02/19 01:20:10;;;;;;;;;;;;;;;9.26;83.83;100399.63;1088726;54;19931;-82
2023/02/19 01:21:19;;;;;;;;;;;;;;;9.30;83.83;100398.38;1088713;54;19927;-82
2023/02/19 01:22:23;;;;;;;;;;;;;;;9.28;83.75;100411.00;1088757;54;19930;-82
2023/02/19 01:23:25;;;;;;;;;;;;;;;9.31;83.67;100411.56;1090396;46;19943;-82
2023/02/19 01:24:33;;;;;;;;;;;;;;;9.36;83.87;100404.06;1090032;46;20293;-83
2023/02/19 01:25:34;;;;;;;;;;;;;;;9.42;83.78;100396.50;1094054;46;19950;-83
2023/02/19 01:26:41;;;;;;;;;;;;;;;9.38;83.67;100379.91;1088881;54;19949;-83
2023/02/19 01:27:45;;;;;;;;;;;;;;;9.32;83.52;100391.09;1097129;46;19939;-83
2023/02/19 01:28:54;;;;;;;;;;;;;;;9.40;83.35;100379.78;1088777;54;19942;-84
2023/02/19 01:29:55;;;;;;;;;;;;;;;9.35;83.96;100382.84;1088821;54;19926;-82
2023/02/19 01:31:02;;;;;;;;;;;;;;;9.32;83.53;100389.25;1095685;46;19938;-84
2023/02/19 02:31:01;;;;;;;;;;;;;;;8.99;89.27;100356.44;1088135;54;19934;-81
2023/02/19 02:32:05;;;;;;;;;;;;;;;9.04;89.77;100345.38;1091680;46;19950;-83
2023/02/19 02:33:13;;;;;;;;;;;;;;;9.13;89.07;100349.94;1088502;54;19927;-83
2023/02/19 02:34:17;;;;;;;;;;;;;;;9.11;88.76;100354.56;1088650;54;19951;-84
2023/02/19 02:40:02;;;;;;;;;;;;;;;8.93;89.45;100342.75;1089611;39;20609;-81
2023/02/19 02:41:04;;;;;;;;;;;;;;;8.97;89.17;100349.53;1089157;46;19927;-82
2023/02/19 02:43:24;;;;;;;;;;;;;;;9.05;88.29;100347.09;1088616;54;19930;-83
2023/02/19 02:44:33;;;;;;;;;;;;;;;9.04;88.42;100345.38;1088599;54;19942;-83
2023/02/19 02:45:34;;;;;;;;;;;;;;;8.97;88.17;100334.38;1091640;46;20610;-81
2023/02/19 02:46:43;;;;;;;;;;;;;;;9.02;87.93;100326.81;1088590;54;20642;-83
2023/02/19 02:47:47;;;;;;;;;;;;;;;9.09;87.37;100332.50;1096977;46;19982;-82
2023/02/19 02:50:37;;;;;;;;;;;;;;;9.06;86.26;100319.44;1088704;54;19926;-82
2023/02/19 02:51:43;;;;;;;;;;;;;;;9.05;85.69;100329.25;1096521;46;20630;-82
2023/02/19 02:55:22;;;;;;;;;;;;;;;9.14;84.80;100340.97;1088634;54;19998;-81
2023/02/19 03:26:52;;;;;;;;;;;;;;;9.29;81.24;100311.31;1088520;54;19945;-81
2023/02/19 03:27:56;;;;;;;;;;;;;;;9.29;80.98;100312.16;1088443;54;19963;-81
2023/02/19 03:30:20;;;;;;;;;;;;;;;9.35;81.28;100306.31;1088439;54;19930;-81
2023/02/19 03:31:23;;;;;;;;;;;;;;;9.39;80.55;100306.88;1088493;54;19926;-85
2023/02/19 03:32:31;;;;;;;;;;;;;;;9.39;80.59;100306.88;1088390;54;19949;-84
2023/02/19 03:33:33;;;;;;;;;;;;;;;9.42;80.65;100306.63;1091177;46;20716;-85
2023/02/19 03:34:38;;;;;;;;;;;;;;;9.37;79.86;100319.50;1088526;54;19946;-84
2023/02/19 03:35:41;;;;;;;;;;;;;;;9.43;80.19;100312.81;1088426;54;19938;-82
2023/02/19 03:36:47;;;;;;;;;;;;;;;9.55;79.86;100310.91;1088428;54;19954;-82
2023/02/19 03:37:52;;;;;;;;;;;;;;;9.61;79.53;100316.56;1088457;54;19942;-83
2023/02/19 03:39:04;;;;;;;;;;;;;;;9.49;79.44;100312.28;1089752;46;19926;-84
2023/02/19 03:40:06;;;;;;;;;;;;;;;9.40;79.89;100319.25;1139018;31;20670;-84
2023/02/19 03:41:18;;;;;;;;;;;;;;;9.43;79.56;100324.34;1088495;54;19934;-84
2023/02/19 03:42:28;;;;;;;;;;;;;;;9.52;79.36;100315.53;1090029;46;19950;-83
2023/02/19 03:43:37;;;;;;;;;;;;;;;9.43;79.19;100312.81;1088481;54;19935;-83
2023/02/19 03:44:41;;;;;;;;;;;;;;;9.42;79.63;100317.31;1088492;54;19934;-82
2023/02/19 03:45:48;;;;;;;;;;;;;;;9.38;79.52;100317.69;1092377;46;19942;-82
2023/02/19 03:46:53;;;;;;;;;;;;;;;9.30;79.78;100323.66;1091023;46;19926;-83
2023/02/19 03:48:05;;;;;;;;;;;;;;;9.33;79.75;100334.94;1088476;54;19965;-83
2023/02/19 03:49:12;;;;;;;;;;;;;;;9.50;79.29;100320.16;1088577;47;19979;-82
2023/02/19 03:50:19;;;;;;;;;;;;;;;9.42;79.26;100338.66;1089421;46;19926;-83
2023/02/19 03:51:27;;;;;;;;;;;;;;;9.52;79.31;100331.56;1090110;46;19927;-83
2023/02/19 03:52:38;;;;;;;;;;;;;;;9.55;78.93;100327.78;1088522;54;19927;-83
2023/02/19 03:53:46;;;;;;;;;;;;;;;9.51;78.33;100332.53;1091567;46;19950;-83
2023/02/19 03:54:56;;;;;;;;;;;;;;;9.52;78.70;100334.22;1090661;46;19943;-84
2023/02/19 03:56:04;;;;;;;;;;;;;;;9.45;78.61;100332.19;1091611;46;19942;-83
2023/02/19 03:57:16;;;;;;;;;;;;;;;9.56;78.60;100336.63;1090574;46;19942;-83
2023/02/19 03:58:23;;;;;;;;;;;;;;;9.54;78.53;100333.25;1088539;54;19950;-83
2023/02/19 04:04:11;;;;;;;;;;;;;;;9.46;78.88;100340.06;1088463;54;19943;-82
2023/02/19 04:05:20;;;;;;;;;;;;;;;9.39;78.66;100340.75;1088798;47;19965;-81
2023/02/19 04:11:14;;;;;;;;;;;;;;;9.24;78.93;100345.53;1087822;54;19954;-81
2023/02/19 04:12:32;;;;;;;;;;;;;;;;;;;;;
2023/02/19 08:26:25;;;;;;;;;;;;;;;9.67;75.03;100545.63;1088182;54;19937;-81
2023/02/19 09:49:04;;;;;;;;;;;;;;;10.47;69.92;100622.75;1087517;54;19942;-83
2023/02/19 09:50:12;;;;;;;;;;;;;;;10.54;69.42;100623.94;1088718;54;19927;-83
2023/02/19 09:51:33;;;;;;;;;;;;;;;10.65;69.19;100624.84;1088622;54;19989;-82
2023/02/19 09:52:42;;;;;;;;;;;;;;;10.47;69.44;100624.59;1088599;54;19933;-82
2023/02/19 09:53:54;;;;;;;;;;;;;;;10.57;68.91;100638.88;1088615;54;20033;-83
2023/02/19 09:55:01;;;;;;;;;;;;;;;10.45;68.97;100636.28;1088706;54;19933;-82
2023/02/19 18:32:19;;;;;;;;;;;;;;;9.66;74.07;100879.47;1087608;54;19926;-82
